Time;durP1;ratioP1;P1;durP2;ratioP2;P2;SDS_P1;SDS_P2;PMS_P1;PMS_P2;Temp;Humidity;BMP_temperature;BMP_pressure;BME280_temperature;BME280_humidity;BME280_pressure;Samples;Min_cycle;Max_cycle;Signal;HPM_P1;HPM_P2
2022/12/21 00:01:14;;;;;;;26.77;16.40;;;;;;;-1.89;84.22;99605.47;5109520;28;20054;-73
2022/12/21 00:03:43;;;;;;;25.48;15.77;;;;;;;-4.42;83.99;99490.63;5110519;28;20036;-73
2022/12/21 00:06:10;;;;;;;30.40;17.23;;;;;;;-1.86;84.16;99600.28;5111966;28;20036;-73
2022/12/21 00:08:37;;;;;;;28.23;16.70;;;;;;;-1.86;84.26;99605.47;5110196;28;20203;-73
2022/12/21 00:11:05;;;;;;;30.35;15.52;;;;;;;-1.86;84.19;99602.88;5110426;28;20051;-73
2022/12/21 00:13:33;;;;;;;25.50;17.15;;;;;;;-1.88;84.55;99622.78;5111611;28;20055;-73
2022/12/21 00:16:03;;;;;;;25.48;15.55;;;;;;;-2.45;84.31;99531.06;5111391;28;20048;-73
2022/12/21 00:18:32;;;;;;;25.15;15.68;;;;;;;-2.50;84.54;99508.59;5110647;28;20040;-73
2022/12/21 00:21:00;;;;;;;24.55;15.80;;;;;;;-1.89;84.29;99625.38;5111091;28;20292;-73
2022/12/21 00:23:27;;;;;;;20.13;13.13;;;;;;;-1.89;84.26;99608.06;5113607;28;20040;-73
2022/12/21 00:25:54;;;;;;;26.08;16.70;;;;;;;-1.91;84.16;99599.41;5113070;28;20036;-73
2022/12/21 00:28:21;;;;;;;23.45;15.02;;;;;;;-3.20;84.13;99433.34;5111320;28;20032;-73
2022/12/21 00:30:48;;;;;;;25.70;17.40;;;;;;;-1.89;84.26;99609.81;5111312;28;20044;-73
2022/12/21 00:33:16;;;;;;;25.90;15.80;;;;;;;-1.86;84.09;99617.59;5112465;28;20044;-73
2022/12/21 00:35:48;;;;;;;24.20;15.18;;;;;;;-1.86;84.08;99613.25;5111370;28;20036;-73
2022/12/21 00:38:16;;;;;;;25.85;15.57;;;;;;;-1.83;84.21;99626.25;5112156;28;20062;-73
2022/12/21 00:40:43;;;;;;;26.13;15.38;;;;;;;-3.05;84.08;99418.66;5112273;28;20046;-73
2022/12/21 00:43:11;;;;;;;27.88;15.35;;;;;;;-1.83;84.28;99633.19;5111786;28;20036;-73
2022/12/21 00:45:38;;;;;;;24.42;13.55;;;;;;;-2.01;84.13;99627.13;5111615;28;20055;-73
2022/12/21 00:48:06;;;;;;;24.90;14.40;;;;;;;-7.91;83.39;98970.50;5111982;28;20048;-73
2022/12/21 00:50:35;;;;;;;23.15;14.18;;;;;;;-1.79;83.91;99647.91;5111331;28;20044;-73
2022/12/21 00:53:02;;;;;;;23.92;14.00;;;;;;;-1.80;84.12;99638.38;5111859;28;20050;-73
2022/12/21 00:55:28;;;;;;;29.50;14.63;;;;;;;-1.81;84.19;99632.31;5110799;28;20054;-72
2022/12/21 00:57:55;;;;;;;27.42;13.68;;;;;;;-1.81;84.19;99631.44;5111314;28;20043;-72
2022/12/21 01:00:22;;;;;;;26.25;15.98;;;;;;;-1.81;84.28;99634.91;5112476;28;20227;-73
2022/12/21 01:02:49;;;;;;;25.05;15.23;;;;;;;-1.81;84.19;99637.50;5113159;28;20040;-73
2022/12/21 01:05:16;;;;;;;25.55;14.52;;;;;;;-2.38;84.12;99527.59;5113643;28;20047;-73
2022/12/21 01:07:44;;;;;;;29.08;17.17;;;;;;;-1.81;84.34;99619.31;5113164;28;20052;-74
2022/12/21 01:10:12;;;;;;;26.23;15.45;;;;;;;-1.78;84.37;99616.72;5112309;28;20058;-74
2022/12/21 01:12:39;;;;;;;27.42;13.52;;;;;;;-4.27;84.01;99180.22;5112643;28;20040;-73
2022/12/21 01:15:06;;;;;;;26.73;14.93;;;;;;;-1.84;84.52;99595.94;5109254;28;20040;-73
2022/12/21 01:17:33;;;;;;;27.17;14.13;;;;;;;-1.84;84.57;99608.06;5111002;28;20040;-73
2022/12/21 01:20:01;;;;;;;26.80;15.73;;;;;;;-6.46;84.29;98817.97;5111581;28;20058;-74
2022/12/21 01:22:27;;;;;;;21.88;13.43;;;;;;;-4.20;84.42;99198.34;5111531;28;20048;-74
2022/12/21 01:24:56;;;;;;;20.73;15.15;;;;;;;-1.84;85.02;99602.88;5111356;28;20040;-74
2022/12/21 01:27:23;;;;;;;27.27;15.80;;;;;;;-3.29;84.88;99366.78;5112097;28;20048;-73
2022/12/21 01:29:50;;;;;;;30.00;16.73;;;;;;;-3.24;85.15;99377.16;5094008;28;20044;-74
2022/12/21 01:32:16;;;;;;;25.05;16.70;;;;;;;-2.57;85.22;99475.72;5111410;28;20079;-74
2022/12/21 01:34:43;;;;;;;23.75;14.85;;;;;;;-3.30;85.20;99360.75;5112020;28;20047;-73
2022/12/21 01:37:10;;;;;;;27.25;15.30;;;;;;;-2.29;85.44;99539.72;5111808;28;20326;-74
2022/12/21 01:39:37;;;;;;;23.73;14.98;;;;;;;-1.89;85.39;99592.47;5093604;28;20059;-73
2022/12/21 01:42:06;;;;;;;26.35;16.77;;;;;;;-1.85;85.54;99603.75;5111092;28;20120;-73
2022/12/21 01:45:05;;;;;;;27.55;16.02;;;;;;;-2.22;85.62;99541.44;5111112;28;20040;-73
2022/12/21 01:47:39;;;;;;;26.83;15.45;;;;;;;-3.08;85.73;99407.41;5078823;28;20044;-73
2022/12/21 01:50:28;;;;;;;27.53;16.07;;;;;;;-2.81;85.90;99454.09;5111419;28;20072;-73
2022/12/21 01:52:58;;;;;;;33.20;18.10;;;;;;;-1.86;85.80;99613.25;5111580;28;20036;-73
2022/12/21 01:55:27;;;;;;;24.83;14.73;;;;;;;-1.85;85.70;99615.00;5094905;28;20044;-73
2022/12/21 01:57:56;;;;;;;25.35;14.75;;;;;;;-1.84;85.44;99602.88;5111330;28;20040;-73
2022/12/21 02:00:23;;;;;;;25.08;16.02;;;;;;;-1.85;85.57;99599.41;5093608;28;20059;-74
2022/12/21 02:02:52;;;;;;;24.90;15.23;;;;;;;-1.84;85.65;99588.16;5111482;28;20101;-73
2022/12/21 02:05:27;;;;;;;26.67;16.60;;;;;;;-2.48;85.47;99486.97;5110714;28;20036;-74
2022/12/21 02:07:58;;;;;;;25.80;14.95;;;;;;;-3.05;85.62;99384.09;5111186;28;20050;-73
2022/12/21 02:10:25;;;;;;;25.02;15.70;;;;;;;-2.98;85.80;99422.13;5110375;28;20037;-73
2022/12/21 02:13:00;;;;;;;27.58;16.00;;;;;;;-1.89;86.06;99591.63;5111763;28;20066;-74
2022/12/21 02:15:44;;;;;;;26.27;16.42;;;;;;;-1.92;86.26;99586.44;5094372;28;20044;-73
2022/12/21 02:18:20;;;;;;;24.90;15.35;;;;;;;-1.93;86.09;99567.38;5109942;28;20067;-72
2022/12/21 02:21:17;;;;;;;24.75;14.85;;;;;;;-1.89;86.07;99553.53;5109833;28;20183;-73
2022/12/21 02:24:25;;;;;;;24.92;15.63;;;;;;;-1.91;86.37;99554.38;5108580;28;20042;-73
2022/12/21 02:27:24;;;;;;;26.73;17.42;;;;;;;-2.53;86.17;99444.56;5109547;28;20061;-73
2022/12/21 02:30:12;;;;;;;26.80;16.85;;;;;;;-1.90;86.16;99561.31;5104771;28;20040;-74
2022/12/21 02:32:54;;;;;;;26.17;15.07;;;;;;;-1.89;86.02;99565.66;5108797;28;20263;-73
2022/12/21 02:35:35;;;;;;;25.50;13.30;;;;;;;-1.84;85.93;99575.16;5110696;28;20103;-74
2022/12/21 02:38:20;;;;;;;24.30;14.50;;;;;;;-2.36;85.79;99494.72;5110643;28;20239;-73
2022/12/21 02:40:56;;;;;;;22.05;14.90;;;;;;;-1.80;86.00;99607.19;5110675;28;20032;-74
2022/12/21 02:46:21;;;;;;;20.60;13.65;;;;;;;-1.78;85.60;99598.53;5111184;28;20053;-74
2022/12/21 02:48:55;;;;;;;24.83;14.43;;;;;;;-1.76;85.93;99621.91;5109530;28;20036;-74
2022/12/21 02:51:26;;;;;;;23.45;14.23;;;;;;;-2.85;85.44;99429.03;5110316;28;20044;-73
2022/12/21 02:53:54;;;;;;;26.08;14.65;;;;;;;-1.77;85.36;99615.84;5110007;28;20047;-74
2022/12/21 02:56:21;;;;;;;23.77;15.15;;;;;;;-1.78;85.51;99624.50;5109635;28;20162;-74
2022/12/21 02:58:48;;;;;;;24.23;14.70;;;;;;;-1.81;85.70;99627.13;5108551;28;20243;-74
2022/12/21 03:01:29;;;;;;;23.33;13.52;;;;;;;-1.84;85.59;99613.25;5092221;28;20048;-73
2022/12/21 03:04:28;;;;;;;21.70;13.75;;;;;;;-1.84;85.77;99610.66;5111585;28;20097;-74
2022/12/21 03:07:26;;;;;;;24.90;13.88;;;;;;;-1.83;85.83;99604.59;5101763;28;20043;-74
2022/12/21 03:10:06;;;;;;;22.45;14.35;;;;;;;-2.44;85.87;99493.00;5111628;28;20050;-74
2022/12/21 03:12:45;;;;;;;23.75;14.32;;;;;;;-1.80;85.82;99594.19;5110543;28;20048;-74
2022/12/21 03:15:19;;;;;;;20.50;13.23;;;;;;;-1.83;85.59;99605.47;5110990;28;20103;-74
2022/12/21 03:17:54;;;;;;;21.23;14.00;;;;;;;-5.37;85.28;99008.50;5110317;28;20066;-74
2022/12/21 03:20:24;;;;;;;;;;;;;;;-1.87;86.02;99592.47;5111935;28;20200;-74
2022/12/21 03:22:57;;;;;;;23.80;12.05;;;;;;;-1.88;86.13;99598.53;5112023;28;19916;-74
2022/12/21 03:25:30;;;;;;;23.77;13.93;;;;;;;-1.86;85.88;99595.06;5108114;28;20048;-74
2022/12/21 03:28:04;;;;;;;28.23;14.90;;;;;;;-1.83;86.01;99589.88;5110261;28;20052;-74
2022/12/21 03:30:39;;;;;;;25.45;14.80;;;;;;;-3.09;85.54;99362.47;5109014;28;20035;-74
2022/12/21 03:33:10;;;;;;;22.27;14.82;;;;;;;-1.79;85.79;99575.16;5109241;28;20050;-73
2022/12/21 03:35:41;;;;;;;28.50;15.32;;;;;;;-1.77;85.61;99573.41;5109191;28;20060;-74
2022/12/21 03:38:14;;;;;;;24.83;15.45;;;;;;;-1.77;85.66;99571.69;5109061;28;20122;-74
2022/12/21 03:40:47;;;;;;;25.88;15.00;;;;;;;-1.80;85.84;99571.69;5110092;28;20069;-73
2022/12/21 03:43:22;;;;;;;24.05;14.82;;;;;;;-1.80;86.01;99557.81;5109998;28;20230;-73
2022/12/21 03:45:52;;;;;;;24.33;15.00;;;;;;;-1.80;86.03;99558.69;5110838;28;20044;-73
2022/12/21 03:48:23;;;;;;;27.55;17.35;;;;;;;-5.60;85.61;98914.59;5110305;28;20052;-74
2022/12/21 03:50:55;;;;;;;24.75;14.20;;;;;;;-1.83;86.16;99565.63;5109151;28;20036;-73
2022/12/21 03:53:33;;;;;;;27.05;15.95;;;;;;;-1.83;86.44;99573.44;5091283;28;20063;-72
2022/12/21 03:56:06;;;;;;;25.10;15.88;;;;;;;-1.84;86.29;99569.97;5108084;28;20031;-72
2022/12/21 03:58:34;;;;;;;24.83;13.35;;;;;;;-3.62;86.09;99339.97;5107871;28;20052;-70
2022/12/21 04:01:11;;;;;;;24.20;13.75;;;;;;;-1.80;86.36;99569.09;5108355;28;20040;-71
2022/12/21 04:03:42;;;;;;;24.08;14.82;;;;;;;-1.79;86.16;99568.22;5108986;28;20040;-71
2022/12/21 04:06:14;;;;;;;27.70;15.02;;;;;;;-3.78;85.96;99216.47;5108644;28;20124;-72
2022/12/21 04:08:42;;;;;;;28.02;14.88;;;;;;;-1.71;86.20;99557.81;5109002;28;20052;-71
2022/12/21 04:12:36;;;;;;;27.35;15.00;;;;;;;-1.72;86.06;99562.13;5107989;28;20254;-72
2022/12/21 04:13:57;;;;;;;28.48;16.35;;;;;;;-3.15;85.94;99328.78;5108953;28;20040;-72
2022/12/21 04:16:24;;;;;;;26.48;14.85;;;;;;;-2.39;85.85;99458.38;5108052;28;20197;-72
2022/12/21 04:21:35;;;;;;;27.75;16.30;;;;;;;-1.97;85.95;99550.06;5107451;28;20051;-71
2022/12/21 04:29:46;;;;;;;22.48;12.95;;;;;;;-1.69;86.12;99577.72;5067713;28;20037;-74
2022/12/21 04:32:13;;;;;;;25.20;14.10;;;;;;;-4.39;85.81;99115.50;5093430;28;20052;-74
2022/12/21 04:34:39;;;;;;;23.08;14.25;;;;;;;-1.68;86.01;99563.84;5108337;28;20060;-72
2022/12/21 04:39:52;;;;;;;26.80;13.05;;;;;;;-1.65;85.96;99571.66;5101693;28;20066;-74
2022/12/21 04:42:21;;;;;;;26.00;14.80;;;;;;;-1.65;86.00;99558.66;5107814;28;20044;-74
2022/12/21 04:44:47;;;;;;;27.25;14.40;;;;;;;-1.62;85.86;99555.19;5108240;28;20048;-74
2022/12/21 04:47:14;;;;;;;25.25;14.50;;;;;;;-1.63;86.27;99556.06;5107750;28;20056;-74
2022/12/21 04:49:41;;;;;;;22.52;14.13;;;;;;;-1.61;86.01;99545.66;5110736;28;20036;-73
2022/12/21 04:52:08;;;;;;;26.08;14.57;;;;;;;-1.62;85.95;99526.59;5113183;28;20107;-73
2022/12/21 04:54:35;;;;;;;28.88;15.98;;;;;;;-1.65;86.16;99511.88;5113684;28;20047;-73
2022/12/21 04:57:02;;;;;;;24.83;14.98;;;;;;;-5.95;85.53;98800.97;5113571;28;20043;-73
2022/12/21 04:59:30;;;;;;;27.02;15.10;;;;;;;-1.60;85.99;99557.78;5111104;28;20040;-73
2022/12/21 05:01:57;;;;;;;27.13;15.77;;;;;;;-1.61;86.14;99549.13;5110058;28;20082;-74
2022/12/21 05:04:24;;;;;;;25.63;14.40;;;;;;;-1.60;86.05;99545.66;5111636;28;20107;-73
2022/12/21 05:06:51;;;;;;;27.55;15.23;;;;;;;-1.57;86.00;99542.16;5110432;28;20066;-73
2022/12/21 05:09:18;;;;;;;28.13;14.63;;;;;;;-1.58;85.87;99551.72;5111145;28;20052;-73
2022/12/21 05:11:45;;;;;;;26.35;15.10;;;;;;;-1.58;85.70;99553.44;5109007;28;20036;-73
2022/12/21 05:14:11;;;;;;;26.65;14.55;;;;;;;-1.58;85.96;99551.72;5110649;28;20040;-73
2022/12/21 05:16:39;;;;;;;23.73;15.10;;;;;;;-2.35;85.91;99421.19;5111774;28;20048;-73
2022/12/21 05:19:08;;;;;;;22.42;13.55;;;;;;;-1.62;85.92;99534.38;5111741;28;20040;-73
2022/12/21 05:21:36;;;;;;;26.70;14.50;;;;;;;-1.56;85.87;99546.50;5111866;28;20215;-73
2022/12/21 05:24:02;;;;;;;20.50;13.45;;;;;;;-1.58;85.75;99540.44;5112432;28;20052;-73
2022/12/21 05:26:29;;;;;;;23.00;12.90;;;;;;;-2.78;85.84;99350.34;5095248;28;20061;-73
2022/12/21 05:28:56;;;;;;;26.50;14.45;;;;;;;-1.60;85.78;99549.97;5094727;28;20238;-73
2022/12/21 05:31:23;;;;;;;25.27;12.77;;;;;;;-1.62;85.95;99555.19;5110264;28;20250;-74
2022/12/21 05:33:52;;;;;;;21.65;12.48;;;;;;;-1.67;86.01;99551.72;5109075;28;20044;-72
2022/12/21 05:36:19;;;;;;;22.55;13.50;;;;;;;-6.41;85.93;99065.53;5112445;28;20043;-73
2022/12/21 05:38:46;;;;;;;24.50;13.15;;;;;;;-1.60;86.14;99545.66;5112457;28;20065;-73
2022/12/21 05:41:14;;;;;;;21.35;11.38;;;;;;;-5.21;85.86;98956.00;5111063;28;20292;-73
2022/12/21 05:43:41;;;;;;;20.67;12.52;;;;;;;-1.65;86.23;99550.00;5110949;28;20032;-73
2022/12/21 05:46:09;;;;;;;21.77;12.65;;;;;;;-1.65;86.28;99550.84;5111444;28;20106;-73
2022/12/21 05:48:37;;;;;;;21.83;12.80;;;;;;;-1.65;86.24;99544.78;5111129;28;20040;-73
2022/12/21 05:51:09;;;;;;;19.33;11.70;;;;;;;-2.80;86.09;99359.84;5093766;28;20032;-73
2022/12/21 05:53:36;;;;;;;23.02;13.27;;;;;;;-2.41;85.90;99438.50;5110550;28;20050;-73
2022/12/21 05:56:03;;;;;;;22.00;13.57;;;;;;;-1.69;86.07;99575.13;5111390;28;20044;-73
2022/12/21 05:58:30;;;;;;;24.65;14.32;;;;;;;-1.71;86.25;99574.25;5110598;28;20040;-73
2022/12/21 06:01:00;;;;;;;24.85;14.20;;;;;;;-3.09;85.87;99330.50;5110190;28;20050;-73
2022/12/21 06:03:27;;;;;;;22.67;13.52;;;;;;;-1.67;86.05;99562.13;5111800;28;20044;-73
2022/12/21 06:05:54;;;;;;;23.17;13.15;;;;;;;-3.51;85.92;99253.63;5111647;28;20184;-73
2022/12/21 06:08:22;;;;;;;27.25;14.50;;;;;;;-4.47;85.77;99088.78;5111008;28;20048;-73
2022/12/21 06:10:49;;;;;;;24.75;14.60;;;;;;;-2.39;86.15;99426.38;5110339;28;20058;-73
2022/12/21 06:13:16;;;;;;;23.35;12.85;;;;;;;-1.61;85.99;99556.91;5092979;28;20303;-73
2022/12/21 06:15:43;;;;;;;23.80;14.15;;;;;;;-1.61;86.03;99564.72;5111041;28;20055;-73
2022/12/21 06:18:10;;;;;;;24.67;12.77;;;;;;;-1.61;86.04;99559.50;5110542;28;20044;-73
2022/12/21 06:20:36;;;;;;;28.33;13.75;;;;;;;-1.61;85.83;99556.03;5109342;28;20292;-73
2022/12/21 06:23:03;;;;;;;22.08;14.55;;;;;;;-4.79;85.33;99008.59;5109720;28;20065;-73
2022/12/21 06:25:31;;;;;;;22.63;13.35;;;;;;;-2.67;85.83;99353.78;5110462;28;20203;-73
2022/12/21 06:27:58;;;;;;;25.10;14.27;;;;;;;-1.65;85.90;99527.47;5111102;28;20040;-73
2022/12/21 06:30:25;;;;;;;27.77;14.25;;;;;;;-1.66;85.91;99535.28;5111700;28;20046;-73
2022/12/21 06:32:52;;;;;;;20.92;12.63;;;;;;;-1.65;85.93;99542.19;5110920;28;20044;-73
2022/12/21 06:35:19;;;;;;;24.75;14.45;;;;;;;-3.82;85.74;99173.31;5110633;28;20062;-73
2022/12/21 06:37:45;;;;;;;25.27;14.85;;;;;;;-1.66;85.99;99543.06;5110846;28;20296;-73
2022/12/21 06:40:14;;;;;;;20.73;12.45;;;;;;;-1.65;85.89;99544.78;5092830;28;20040;-73
2022/12/21 06:42:42;;;;;;;22.13;14.35;;;;;;;-4.38;85.79;99085.34;5110321;28;20050;-73
2022/12/21 06:45:09;;;;;;;28.65;15.45;;;;;;;-3.08;85.79;99304.56;5110271;28;20043;-73
2022/12/21 06:47:36;;;;;;;25.08;14.93;;;;;;;-4.95;85.48;99058.53;5110880;28;20063;-73
2022/12/21 06:50:03;;;;;;;22.60;12.88;;;;;;;-1.60;85.81;99539.59;5110666;28;20043;-73
2022/12/21 06:52:33;;;;;;;25.58;13.70;;;;;;;-1.61;85.88;99537.84;5109372;28;20089;-73
2022/12/21 06:55:00;;;;;;;25.52;13.68;;;;;;;-1.60;86.06;99548.25;5109202;28;20272;-73
2022/12/21 06:57:27;;;;;;;20.42;12.57;;;;;;;-1.60;86.13;99548.25;5109450;28;20043;-73
2022/12/21 06:59:55;;;;;;;29.08;13.77;;;;;;;-2.80;86.03;99352.06;5091206;28;20086;-73
2022/12/21 07:02:22;;;;;;;25.15;14.38;;;;;;;-1.59;86.14;99562.97;5109265;28;20051;-73
2022/12/21 07:04:52;;;;;;;31.88;15.38;;;;;;;-1.65;86.21;99543.06;5107625;28;20067;-73
2022/12/21 07:07:19;;;;;;;30.45;16.80;;;;;;;-2.71;85.91;99372.81;5091530;28;20044;-73
2022/12/21 07:09:46;;;;;;;27.88;14.52;;;;;;;-1.59;86.19;99559.50;5108065;28;20047;-73
2022/12/21 07:12:13;;;;;;;27.38;13.88;;;;;;;-2.32;86.06;99435.88;5090868;28;20059;-72
2022/12/21 07:14:40;;;;;;;27.40;14.65;;;;;;;-3.34;86.02;99275.22;5108708;28;20086;-73
2022/12/21 07:17:08;;;;;;;27.35;14.93;;;;;;;-2.13;85.98;99458.34;5107631;28;20044;-73
2022/12/21 07:19:35;;;;;;;27.30;16.33;;;;;;;-3.17;85.99;99278.66;5107658;28;20094;-73
2022/12/21 07:22:02;;;;;;;28.77;15.82;;;;;;;-2.65;86.05;99370.19;5107613;28;20036;-73
2022/12/21 07:24:29;;;;;;;30.90;16.30;;;;;;;-2.17;86.15;99453.16;5107152;28;20043;-73
2022/12/21 07:26:55;;;;;;;26.77;14.77;;;;;;;-1.55;86.23;99562.09;5107450;28;20292;-73
2022/12/21 07:29:22;;;;;;;29.77;15.20;;;;;;;-3.95;85.94;99148.31;5107417;28;20071;-73
2022/12/21 07:31:50;;;;;;;27.95;14.57;;;;;;;-1.56;86.22;99549.97;5106752;28;20242;-73
2022/12/21 07:34:19;;;;;;;27.67;14.38;;;;;;;-1.58;86.20;99546.50;5107579;28;20047;-73
2022/12/21 07:36:46;;;;;;;28.40;16.55;;;;;;;-1.56;86.26;99551.69;5108275;28;20052;-73
2022/12/21 07:39:12;;;;;;;28.73;17.25;;;;;;;-1.55;86.35;99556.03;5106937;28;20077;-73
2022/12/21 07:41:39;;;;;;;27.58;16.02;;;;;;;-1.57;86.23;99563.81;5107406;28;20044;-73
2022/12/21 07:44:06;;;;;;;26.23;15.55;;;;;;;-1.58;86.39;99561.25;5108029;28;20036;-73
2022/12/21 07:46:33;;;;;;;27.50;13.95;;;;;;;-1.60;86.48;99565.56;5090306;28;20044;-73
2022/12/21 07:49:00;;;;;;;30.75;15.20;;;;;;;-3.78;86.04;99190.59;5107948;28;20047;-73
2022/12/21 07:51:28;;;;;;;30.60;16.65;;;;;;;-1.59;86.44;99560.38;5108314;28;20054;-73
2022/12/21 07:53:54;;;;;;;26.08;14.10;;;;;;;-1.59;86.50;99556.91;5107764;28;20258;-73
2022/12/21 07:56:21;;;;;;;27.15;15.07;;;;;;;-1.59;86.41;99562.97;5108474;28;20330;-73
2022/12/21 07:58:48;;;;;;;26.13;15.55;;;;;;;-1.57;86.20;99557.75;5107410;28;20310;-73
2022/12/21 08:01:17;;;;;;;27.73;14.82;;;;;;;-3.50;86.14;99227.72;5108323;28;20036;-73
2022/12/21 08:03:46;;;;;;;28.00;15.65;;;;;;;-1.58;86.43;99559.50;5107808;28;20051;-73
2022/12/21 08:06:13;;;;;;;26.88;14.77;;;;;;;-1.58;86.29;99556.03;5107955;28;20048;-73
2022/12/21 08:08:41;;;;;;;27.27;15.05;;;;;;;-2.21;86.20;99545.78;5107390;28;20050;-73
2022/12/21 08:11:12;;;;;;;28.80;15.35;;;;;;;-1.61;86.35;99549.13;5107694;28;20058;-73
2022/12/21 08:13:40;;;;;;;30.02;15.13;;;;;;;-1.59;86.32;99555.16;5107354;28;20044;-73
2022/12/21 08:16:09;;;;;;;31.10;16.88;;;;;;;-1.57;86.26;99534.38;5107704;28;20048;-73
2022/12/21 08:18:37;;;;;;;31.85;18.50;;;;;;;-1.62;86.47;99537.00;5108787;28;20047;-73
2022/12/21 08:21:05;;;;;;;28.50;14.85;;;;;;;-2.89;86.27;99331.34;5106688;28;20044;-73
2022/12/21 08:23:32;;;;;;;28.40;15.23;;;;;;;-4.32;86.37;99087.91;5107359;28;20031;-72
2022/12/21 08:26:03;;;;;;;27.42;14.65;;;;;;;-1.67;86.53;99533.53;5112255;28;20111;-73
2022/12/21 08:28:30;;;;;;;24.73;13.85;;;;;;;-1.67;86.81;99539.59;5111321;28;20224;-73
2022/12/21 08:31:02;;;;;;;25.42;13.07;;;;;;;-1.64;86.70;99564.72;5110663;28;20067;-73
2022/12/21 08:33:28;;;;;;;29.05;15.70;;;;;;;-1.64;86.46;99543.94;5111121;28;20036;-73
2022/12/21 08:35:55;;;;;;;25.80;15.73;;;;;;;-1.65;86.66;99545.66;5112063;28;20093;-73
2022/12/21 08:38:22;;;;;;;33.08;17.15;;;;;;;-1.63;86.56;99540.47;5111609;28;20047;-73
2022/12/21 08:40:49;;;;;;;27.55;15.18;;;;;;;-1.60;86.47;99542.19;5111372;28;20040;-73
2022/12/21 08:43:18;;;;;;;27.90;15.07;;;;;;;-2.60;86.37;99365.00;5111126;28;20074;-73
2022/12/21 08:45:46;;;;;;;26.00;14.63;;;;;;;-1.67;86.49;99524.00;5112139;28;20216;-73
2022/12/21 08:48:13;;;;;;;25.90;15.05;;;;;;;-1.57;86.48;99536.97;5112314;28;20076;-73
2022/12/21 08:50:40;;;;;;;26.27;14.95;;;;;;;-1.54;86.56;99534.38;5094245;28;20051;-73
2022/12/21 08:53:07;;;;;;;25.77;15.50;;;;;;;-1.54;86.36;99526.56;5111471;28;20296;-73
2022/12/21 08:55:34;;;;;;;27.27;15.40;;;;;;;-3.41;86.26;99207.00;5111901;28;20044;-73
2022/12/21 08:58:01;;;;;;;26.00;15.75;;;;;;;-2.01;86.17;99442.72;5110572;28;20048;-73
2022/12/21 09:00:29;;;;;;;24.58;14.60;;;;;;;-1.53;86.37;99517.91;5093819;28;20048;-73
2022/12/21 09:02:56;;;;;;;27.23;16.20;;;;;;;-2.95;86.16;99336.53;5111343;28;20043;-73
2022/12/21 09:05:23;;;;;;;29.58;16.45;;;;;;;-7.19;85.61;98562.69;5112016;28;20048;-73
2022/12/21 09:07:50;;;;;;;31.42;16.67;;;;;;;-1.56;86.39;99510.97;5111183;28;20311;-73
2022/12/21 09:10:17;;;;;;;27.45;16.35;;;;;;;-1.54;86.35;99510.97;5111100;28;20036;-73
2022/12/21 09:12:44;;;;;;;32.40;16.33;;;;;;;-3.24;86.12;99217.31;5111174;28;20054;-73
2022/12/21 09:15:11;;;;;;;35.10;17.98;;;;;;;-1.50;86.47;99510.09;5111475;28;20044;-73
2022/12/21 09:17:42;;;;;;;32.67;16.33;;;;;;;-4.91;85.94;98925.88;5111854;28;20081;-73
2022/12/21 09:20:09;;;;;;;30.52;17.02;;;;;;;-4.60;86.09;98979.28;5110736;28;20067;-73
2022/12/21 09:22:36;;;;;;;30.45;15.07;;;;;;;-4.36;86.05;99024.09;5110987;28;20036;-73
2022/12/21 09:25:04;;;;;;;32.50;18.95;;;;;;;-1.52;86.51;99507.50;5110438;28;20052;-73
2022/12/21 09:27:30;;;;;;;33.22;18.83;;;;;;;-1.51;86.50;99521.34;5110478;28;20040;-73
2022/12/21 09:29:57;;;;;;;29.73;16.95;;;;;;;-1.52;86.50;99512.69;5094436;28;20036;-72
2022/12/21 09:32:24;;;;;;;30.30;16.65;;;;;;;-1.51;86.37;99517.03;5111188;28;20208;-72
2022/12/21 09:34:52;;;;;;;27.17;15.75;;;;;;;-1.51;86.37;99524.81;5110897;28;20044;-73
2022/12/21 09:37:19;;;;;;;24.60;15.32;;;;;;;-1.69;86.38;99484.16;5093196;28;20036;-73
2022/12/21 09:39:46;;;;;;;29.23;16.52;;;;;;;-2.87;86.10;99269.09;5110784;28;20046;-73
2022/12/21 09:42:27;;;;;;;29.23;15.43;;;;;;;-1.47;86.11;99516.13;5111285;28;20058;-73
2022/12/21 09:45:10;;;;;;;25.15;13.90;;;;;;;-1.47;86.11;99515.28;5111488;28;20044;-73
2022/12/21 09:47:44;;;;;;;33.00;17.35;;;;;;;-2.29;86.00;99376.16;5110600;28;20081;-73
2022/12/21 09:50:20;;;;;;;30.00;13.70;;;;;;;-3.17;86.12;99247.56;5093534;28;20219;-73
2022/12/21 09:52:52;;;;;;;26.08;15.27;;;;;;;-1.48;86.08;99514.41;5109970;28;20516;-73
2022/12/21 09:55:21;;;;;;;24.80;13.45;;;;;;;-2.88;85.90;99286.38;5110669;28;20044;-73
2022/12/21 09:57:52;;;;;;;27.42;16.13;;;;;;;-5.50;85.60;98819.94;5109322;28;20048;-73
2022/12/21 10:00:21;;;;;;;24.08;13.20;;;;;;;-2.56;85.99;99345.97;5109254;28;20036;-73
2022/12/21 10:03:12;;;;;;;27.15;15.93;;;;;;;-2.19;85.96;99384.78;5109137;28;20040;-73
2022/12/21 10:05:52;;;;;;;31.50;15.75;;;;;;;-3.29;85.80;99289.03;5092688;28;20070;-73
2022/12/21 10:08:46;;;;;;;29.55;15.02;;;;;;;-1.46;86.15;99514.41;5109272;28;20119;-74
2022/12/21 10:11:22;;;;;;;31.33;16.17;;;;;;;-5.00;85.75;98996.50;5110099;28;20048;-73
2022/12/21 10:13:58;;;;;;;26.88;15.15;;;;;;;-1.44;86.13;99505.72;5093520;28;20040;-73
2022/12/21 10:16:40;;;;;;;35.13;18.90;;;;;;;-5.92;85.66;98739.03;5109882;28;20192;-73
2022/12/21 10:19:17;;;;;;;29.75;16.67;;;;;;;-1.44;86.34;99495.31;5110813;28;20051;-73
2022/12/21 10:21:54;;;;;;;32.53;17.13;;;;;;;-4.68;85.84;98956.88;5110643;28;20225;-73
2022/12/21 10:24:26;;;;;;;29.98;17.27;;;;;;;-2.21;86.44;99473.06;5110602;28;20056;-73
2022/12/21 10:27:00;;;;;;;33.35;19.00;;;;;;;-1.42;86.08;99485.78;5093109;28;20107;-73
2022/12/21 10:29:33;;;;;;;34.20;17.85;;;;;;;-2.57;86.05;99361.53;5109812;28;20048;-72
2022/12/21 10:32:01;;;;;;;33.63;17.63;;;;;;;-1.45;86.34;99492.75;5109896;28;20063;-72
2022/12/21 10:34:33;;;;;;;28.63;15.68;;;;;;;-1.44;86.39;99473.66;5092293;28;20312;-72
2022/12/21 10:37:04;;;;;;;31.73;17.88;;;;;;;-1.43;86.44;99475.41;5110363;28;20040;-72
2022/12/21 10:39:32;;;;;;;32.08;16.58;;;;;;;-2.71;86.13;99250.88;5109892;28;20056;-72
2022/12/21 10:42:06;;;;;;;33.47;16.48;;;;;;;-1.43;86.28;99465.00;5109394;28;20071;-72
2022/12/21 10:44:35;;;;;;;32.72;16.58;;;;;;;-2.79;86.12;99312.31;5110677;28;20047;-72
2022/12/21 10:47:02;;;;;;;33.28;17.55;;;;;;;-1.43;86.38;99457.19;5109645;28;20035;-72
2022/12/21 10:49:34;;;;;;;31.60;17.05;;;;;;;-1.42;86.45;99470.19;5109817;28;20044;-72
2022/12/21 10:52:40;;;;;;;31.77;17.02;;;;;;;-1.40;86.41;99462.38;5109504;28;20048;-72
2022/12/21 10:55:24;;;;;;;31.15;16.23;;;;;;;-1.47;86.54;99452.88;5109078;28;20050;-72
2022/12/21 10:57:56;;;;;;;30.90;15.90;;;;;;;-1.43;86.21;99455.47;5109281;28;20044;-72
2022/12/21 11:00:25;;;;;;;38.78;18.83;;;;;;;-7.74;85.54;98376.38;5109758;28;20040;-72
2022/12/21 11:02:53;;;;;;;33.00;17.17;;;;;;;-4.71;85.93;98871.56;5109938;28;20059;-72
2022/12/21 11:05:29;;;;;;;35.90;18.15;;;;;;;-1.39;86.19;99418.16;5108710;28;20300;-72
2022/12/21 11:08:16;;;;;;;31.58;17.30;;;;;;;-1.37;86.16;99423.38;5108408;28;20203;-72
2022/12/21 11:10:46;;;;;;;30.98;18.23;;;;;;;-1.59;86.23;99387.97;5108455;28;20048;-72
2022/12/21 11:13:15;;;;;;;32.92;17.38;;;;;;;-1.39;86.15;99414.72;5108268;28;20040;-73
2022/12/21 11:15:52;;;;;;;34.90;19.58;;;;;;;-1.37;86.25;99415.56;5108540;28;20040;-73
2022/12/21 11:18:33;;;;;;;31.48;17.23;;;;;;;-1.35;86.17;99412.09;5108420;28;20044;-73
2022/12/21 11:21:01;;;;;;;31.48;17.08;;;;;;;-1.34;86.14;99449.34;5109238;28;20067;-73
2022/12/21 11:23:30;;;;;;;31.65;17.00;;;;;;;-1.30;86.26;99408.59;5108454;28;20040;-73
2022/12/21 11:25:57;;;;;;;31.95;17.75;;;;;;;-1.29;86.04;99400.78;5109671;28;20093;-73
2022/12/21 11:28:25;;;;;;;33.33;18.10;;;;;;;-1.28;86.16;99479.66;5108785;28;20097;-73
2022/12/21 11:30:56;;;;;;;30.75;17.33;;;;;;;-1.30;86.02;99414.66;5108475;28;20050;-73
2022/12/21 11:33:24;;;;;;;30.95;16.23;;;;;;;-1.99;85.84;99276.50;5108758;28;20036;-73
2022/12/21 11:36:11;;;;;;;30.52;18.77;;;;;;;-1.28;86.06;99412.03;5108983;28;20039;-73
2022/12/21 11:38:40;;;;;;;31.05;16.40;;;;;;;-1.30;86.17;99425.06;5108501;28;20044;-73
2022/12/21 11:41:19;;;;;;;30.20;16.33;;;;;;;-1.31;86.00;99412.94;5108650;28;20032;-73
2022/12/21 11:43:48;;;;;;;28.60;15.20;;;;;;;-3.24;85.90;99092.06;5109048;28;20052;-73
2022/12/21 11:46:34;;;;;;;33.45;19.90;;;;;;;-4.93;85.59;98907.78;5108165;28;20061;-73